sensor_id;sensor_type;location;lat;lon;timestamp;temperature;humidity
63260;DHT22;49390;51.380;0.098;2022-11-15T00:01:48;10.90;99.90
63260;DHT22;49390;51.380;0.098;2022-11-15T00:04:35;10.90;99.90
63260;DHT22;49390;51.380;0.098;2022-11-15T00:07:22;10.90;99.90
63260;DHT22;49390;51.380;0.098;2022-11-15T00:10:30;10.90;99.90
63260;DHT22;49390;51.380;0.098;2022-11-15T00:13:17;10.80;99.90
63260;DHT22;49390;51.380;0.098;2022-11-15T00:16:04;10.80;99.90
63260;DHT22;49390;51.380;0.098;2022-11-15T00:18:51;10.80;99.90
63260;DHT22;49390;51.380;0.098;2022-11-15T00:21:39;10.80;99.90
63260;DHT22;49390;51.380;0.098;2022-11-15T00:24:28;10.70;99.90
63260;DHT22;49390;51.380;0.098;2022-11-15T00:27:14;10.70;99.90
63260;DHT22;49390;51.380;0.098;2022-11-15T00:30:01;10.70;99.90
63260;DHT22;49390;51.380;0.098;2022-11-15T00:32:49;10.70;99.90
63260;DHT22;49390;51.380;0.098;2022-11-15T00:35:35;10.70;99.90
63260;DHT22;49390;51.380;0.098;2022-11-15T00:38:23;10.70;99.90
63260;DHT22;49390;51.380;0.098;2022-11-15T00:41:10;10.70;99.90
63260;DHT22;49390;51.380;0.098;2022-11-15T00:43:58;10.60;99.90
63260;DHT22;49390;51.380;0.098;2022-11-15T00:46:45;10.60;99.90
63260;DHT22;49390;51.380;0.098;2022-11-15T00:49:31;10.60;99.90
63260;DHT22;49390;51.380;0.098;2022-11-15T00:52:18;10.60;99.90
63260;DHT22;49390;51.380;0.098;2022-11-15T00:55:07;10.50;99.90
63260;DHT22;49390;51.380;0.098;2022-11-15T00:57:54;10.50;99.90
63260;DHT22;49390;51.380;0.098;2022-11-15T01:00:41;10.50;99.90
63260;DHT22;49390;51.380;0.098;2022-11-15T01:03:27;10.50;99.90
63260;DHT22;49390;51.380;0.098;2022-11-15T01:06:16;10.50;99.90
63260;DHT22;49390;51.380;0.098;2022-11-15T01:09:03;10.50;99.90
63260;DHT22;49390;51.380;0.098;2022-11-15T01:11:50;10.50;99.90
63260;DHT22;49390;51.380;0.098;2022-11-15T01:14:37;10.50;99.90
63260;DHT22;49390;51.380;0.098;2022-11-15T01:17:24;10.50;99.90
63260;DHT22;49390;51.380;0.098;2022-11-15T01:20:12;10.50;99.90
63260;DHT22;49390;51.380;0.098;2022-11-15T01:22:58;10.50;99.90
63260;DHT22;49390;51.380;0.098;2022-11-15T01:25:46;10.50;99.90
63260;DHT22;49390;51.380;0.098;2022-11-15T01:28:36;10.50;99.90
63260;DHT22;49390;51.380;0.098;2022-11-15T01:31:22;10.50;99.90
63260;DHT22;49390;51.380;0.098;2022-11-15T01:34:10;10.50;99.90
63260;DHT22;49390;51.380;0.098;2022-11-15T01:36:56;10.50;99.90
63260;DHT22;49390;51.380;0.098;2022-11-15T01:39:44;10.50;99.90
63260;DHT22;49390;51.380;0.098;2022-11-15T01:42:30;10.50;99.90
63260;DHT22;49390;51.380;0.098;2022-11-15T01:45:18;10.50;99.90
63260;DHT22;49390;51.380;0.098;2022-11-15T01:48:06;10.50;99.90
63260;DHT22;49390;51.380;0.098;2022-11-15T01:50:55;10.50;99.90
63260;DHT22;49390;51.380;0.098;2022-11-15T01:53:48;10.50;99.90
63260;DHT22;49390;51.380;0.098;2022-11-15T01:56:57;10.50;99.90
63260;DHT22;49390;51.380;0.098;2022-11-15T01:59:48;10.60;99.90
63260;DHT22;49390;51.380;0.098;2022-11-15T02:02:36;10.60;99.90
63260;DHT22;49390;51.380;0.098;2022-11-15T02:05:23;10.60;99.90
63260;DHT22;49390;51.380;0.098;2022-11-15T02:08:12;10.50;99.90
63260;DHT22;49390;51.380;0.098;2022-11-15T02:11:10;10.50;99.90
63260;DHT22;49390;51.380;0.098;2022-11-15T02:14:00;10.50;99.90
63260;DHT22;49390;51.380;0.098;2022-11-15T02:17:16;10.40;99.90
63260;DHT22;49390;51.380;0.098;2022-11-15T02:27:08;10.40;99.90
63260;DHT22;49390;51.380;0.098;2022-11-15T02:33:22;10.40;99.90
63260;DHT22;49390;51.380;0.098;2022-11-15T02:36:35;10.50;99.90
63260;DHT22;49390;51.380;0.098;2022-11-15T02:42:23;10.60;99.90
63260;DHT22;49390;51.380;0.098;2022-11-15T02:45:35;10.70;99.90
63260;DHT22;49390;51.380;0.098;2022-11-15T02:48:24;10.70;99.90
63260;DHT22;49390;51.380;0.098;2022-11-15T02:51:14;10.70;99.90
63260;DHT22;49390;51.380;0.098;2022-11-15T02:54:02;10.70;99.90
63260;DHT22;49390;51.380;0.098;2022-11-15T02:56:52;10.70;99.90
63260;DHT22;49390;51.380;0.098;2022-11-15T03:12:07;10.60;99.90
63260;DHT22;49390;51.380;0.098;2022-11-15T03:15:04;10.60;99.90
63260;DHT22;49390;51.380;0.098;2022-11-15T03:18:00;10.70;99.90
63260;DHT22;49390;51.380;0.098;2022-11-15T03:20:50;10.70;99.90
63260;DHT22;49390;51.380;0.098;2022-11-15T03:23:39;10.70;99.90
63260;DHT22;49390;51.380;0.098;2022-11-15T03:26:27;10.70;99.90
63260;DHT22;49390;51.380;0.098;2022-11-15T03:29:24;10.70;99.90
63260;DHT22;49390;51.380;0.098;2022-11-15T03:32:18;10.80;99.90
63260;DHT22;49390;51.380;0.098;2022-11-15T03:35:09;10.80;99.90
63260;DHT22;49390;51.380;0.098;2022-11-15T03:38:09;10.80;99.90
63260;DHT22;49390;51.380;0.098;2022-11-15T03:41:05;10.80;99.90
63260;DHT22;49390;51.380;0.098;2022-11-15T03:43:57;10.80;99.90
63260;DHT22;49390;51.380;0.098;2022-11-15T03:46:51;10.80;99.90
63260;DHT22;49390;51.380;0.098;2022-11-15T03:49:45;10.80;99.90
63260;DHT22;49390;51.380;0.098;2022-11-15T03:52:34;10.80;99.90
63260;DHT22;49390;51.380;0.098;2022-11-15T03:55:22;10.80;99.90
63260;DHT22;49390;51.380;0.098;2022-11-15T03:58:08;10.80;99.90
63260;DHT22;49390;51.380;0.098;2022-11-15T04:00:55;10.80;99.90
63260;DHT22;49390;51.380;0.098;2022-11-15T04:03:42;10.80;99.90
63260;DHT22;49390;51.380;0.098;2022-11-15T04:06:29;10.80;99.90
63260;DHT22;49390;51.380;0.098;2022-11-15T04:09:16;10.80;99.90
63260;DHT22;49390;51.380;0.098;2022-11-15T04:12:03;10.80;99.90
63260;DHT22;49390;51.380;0.098;2022-11-15T04:14:50;10.80;99.90
63260;DHT22;49390;51.380;0.098;2022-11-15T04:17:55;10.90;99.90
63260;DHT22;49390;51.380;0.098;2022-11-15T04:20:43;10.90;99.90
63260;DHT22;49390;51.380;0.098;2022-11-15T04:23:48;10.90;99.90
63260;DHT22;49390;51.380;0.098;2022-11-15T04:26:53;10.90;99.90
63260;DHT22;49390;51.380;0.098;2022-11-15T04:29:39;11.00;99.90
63260;DHT22;49390;51.380;0.098;2022-11-15T04:32:29;11.10;99.90
63260;DHT22;49390;51.380;0.098;2022-11-15T04:35:16;11.10;99.90
63260;DHT22;49390;51.380;0.098;2022-11-15T04:38:04;11.10;99.90
63260;DHT22;49390;51.380;0.098;2022-11-15T04:41:00;11.20;99.90
63260;DHT22;49390;51.380;0.098;2022-11-15T04:43:47;11.20;99.90
63260;DHT22;49390;51.380;0.098;2022-11-15T04:46:34;11.30;99.90
63260;DHT22;49390;51.380;0.098;2022-11-15T04:49:21;11.30;99.90
63260;DHT22;49390;51.380;0.098;2022-11-15T04:52:08;11.40;99.90
63260;DHT22;49390;51.380;0.098;2022-11-15T04:54:54;11.50;99.90
63260;DHT22;49390;51.380;0.098;2022-11-15T04:57:41;11.50;99.90
63260;DHT22;49390;51.380;0.098;2022-11-15T05:00:29;11.60;99.90
63260;DHT22;49390;51.380;0.098;2022-11-15T05:03:16;11.60;99.90
63260;DHT22;49390;51.380;0.098;2022-11-15T05:06:21;11.60;99.90
63260;DHT22;49390;51.380;0.098;2022-11-15T05:09:08;11.70;99.90
63260;DHT22;49390;51.380;0.098;2022-11-15T05:11:55;11.70;99.90
63260;DHT22;49390;51.380;0.098;2022-11-15T05:14:42;11.80;99.90
63260;DHT22;49390;51.380;0.098;2022-11-15T05:19:45;11.80;99.90
63260;DHT22;49390;51.380;0.098;2022-11-15T05:22:33;11.90;99.90
63260;DHT22;49390;51.380;0.098;2022-11-15T05:25:19;12.00;99.90
63260;DHT22;49390;51.380;0.098;2022-11-15T05:28:08;12.00;99.90
63260;DHT22;49390;51.380;0.098;2022-11-15T05:33:52;12.10;99.90
63260;DHT22;49390;51.380;0.098;2022-11-15T05:36:42;12.10;99.90
63260;DHT22;49390;51.380;0.098;2022-11-15T05:39:30;12.10;99.90
63260;DHT22;49390;51.380;0.098;2022-11-15T05:42:17;12.10;99.90
63260;DHT22;49390;51.380;0.098;2022-11-15T05:45:05;12.10;99.90
63260;DHT22;49390;51.380;0.098;2022-11-15T05:47:54;12.10;99.90
63260;DHT22;49390;51.380;0.098;2022-11-15T05:50:43;12.20;99.90
63260;DHT22;49390;51.380;0.098;2022-11-15T05:53:31;12.20;99.90
63260;DHT22;49390;51.380;0.098;2022-11-15T05:56:19;12.20;99.90
63260;DHT22;49390;51.380;0.098;2022-11-15T05:59:07;12.20;99.90
63260;DHT22;49390;51.380;0.098;2022-11-15T06:01:54;12.20;99.90
63260;DHT22;49390;51.380;0.098;2022-11-15T06:04:41;12.20;99.90
63260;DHT22;49390;51.380;0.098;2022-11-15T06:07:29;12.20;99.90
63260;DHT22;49390;51.380;0.098;2022-11-15T06:10:16;12.30;99.90
63260;DHT22;49390;51.380;0.098;2022-11-15T06:13:04;12.30;99.90
63260;DHT22;49390;51.380;0.098;2022-11-15T06:15:50;12.30;99.90
63260;DHT22;49390;51.380;0.098;2022-11-15T06:18:38;12.30;99.90
63260;DHT22;49390;51.380;0.098;2022-11-15T06:21:27;12.20;99.90
63260;DHT22;49390;51.380;0.098;2022-11-15T06:24:15;12.30;99.90
63260;DHT22;49390;51.380;0.098;2022-11-15T06:27:04;12.30;99.90
63260;DHT22;49390;51.380;0.098;2022-11-15T06:29:51;12.30;99.90
63260;DHT22;49390;51.380;0.098;2022-11-15T06:32:40;12.30;99.90
63260;DHT22;49390;51.380;0.098;2022-11-15T06:35:29;12.30;99.90
63260;DHT22;49390;51.380;0.098;2022-11-15T06:38:16;12.30;99.90
63260;DHT22;49390;51.380;0.098;2022-11-15T06:41:06;12.30;99.90
63260;DHT22;49390;51.380;0.098;2022-11-15T06:43:53;12.30;99.90
63260;DHT22;49390;51.380;0.098;2022-11-15T06:46:40;12.30;99.90
63260;DHT22;49390;51.380;0.098;2022-11-15T06:49:26;12.30;99.90
63260;DHT22;49390;51.380;0.098;2022-11-15T06:52:16;12.30;99.90
63260;DHT22;49390;51.380;0.098;2022-11-15T06:55:04;12.20;99.90
63260;DHT22;49390;51.380;0.098;2022-11-15T06:57:52;12.20;99.90
63260;DHT22;49390;51.380;0.098;2022-11-15T07:00:40;12.20;99.90
63260;DHT22;49390;51.380;0.098;2022-11-15T07:03:27;12.10;99.90
63260;DHT22;49390;51.380;0.098;2022-11-15T07:06:14;12.10;99.90
63260;DHT22;49390;51.380;0.098;2022-11-15T07:09:02;12.10;99.90
63260;DHT22;49390;51.380;0.098;2022-11-15T07:11:49;12.00;99.90
63260;DHT22;49390;51.380;0.098;2022-11-15T07:14:36;12.00;99.90
63260;DHT22;49390;51.380;0.098;2022-11-15T07:17:23;12.00;99.90
63260;DHT22;49390;51.380;0.098;2022-11-15T07:20:10;12.00;99.90
63260;DHT22;49390;51.380;0.098;2022-11-15T07:23:03;12.00;99.90
63260;DHT22;49390;51.380;0.098;2022-11-15T07:25:51;12.00;99.90
63260;DHT22;49390;51.380;0.098;2022-11-15T07:28:39;12.00;99.90
63260;DHT22;49390;51.380;0.098;2022-11-15T07:31:26;12.00;99.90
63260;DHT22;49390;51.380;0.098;2022-11-15T07:34:12;12.00;99.90
63260;DHT22;49390;51.380;0.098;2022-11-15T07:37:00;11.90;99.90
63260;DHT22;49390;51.380;0.098;2022-11-15T07:39:46;11.90;99.90
63260;DHT22;49390;51.380;0.098;2022-11-15T07:42:35;11.90;99.90
63260;DHT22;49390;51.380;0.098;2022-11-15T07:45:44;11.80;99.90
63260;DHT22;49390;51.380;0.098;2022-11-15T07:48:31;11.80;99.90
63260;DHT22;49390;51.380;0.098;2022-11-15T07:51:30;11.80;99.90
63260;DHT22;49390;51.380;0.098;2022-11-15T07:54:16;11.70;99.90
63260;DHT22;49390;51.380;0.098;2022-11-15T07:57:03;11.70;99.90
63260;DHT22;49390;51.380;0.098;2022-11-15T07:59:53;11.70;99.90
63260;DHT22;49390;51.380;0.098;2022-11-15T08:02:40;11.70;99.90
63260;DHT22;49390;51.380;0.098;2022-11-15T08:05:27;11.60;99.90
63260;DHT22;49390;51.380;0.098;2022-11-15T08:08:14;11.60;99.90
63260;DHT22;49390;51.380;0.098;2022-11-15T08:11:01;11.60;99.90
63260;DHT22;49390;51.380;0.098;2022-11-15T08:13:48;11.60;99.90
63260;DHT22;49390;51.380;0.098;2022-11-15T08:16:38;11.60;99.90
63260;DHT22;49390;51.380;0.098;2022-11-15T08:19:24;11.60;99.90
63260;DHT22;49390;51.380;0.098;2022-11-15T08:22:11;11.60;99.90
63260;DHT22;49390;51.380;0.098;2022-11-15T08:24:58;11.60;99.90
63260;DHT22;49390;51.380;0.098;2022-11-15T08:27:44;11.60;99.90
63260;DHT22;49390;51.380;0.098;2022-11-15T08:30:35;11.60;99.90
63260;DHT22;49390;51.380;0.098;2022-11-15T08:33:24;11.60;99.90
63260;DHT22;49390;51.380;0.098;2022-11-15T08:36:15;11.60;99.90
63260;DHT22;49390;51.380;0.098;2022-11-15T08:39:02;11.60;99.90
63260;DHT22;49390;51.380;0.098;2022-11-15T08:41:48;11.60;99.90
63260;DHT22;49390;51.380;0.098;2022-11-15T08:44:35;11.60;99.90
63260;DHT22;49390;51.380;0.098;2022-11-15T08:47:21;11.70;99.90
63260;DHT22;49390;51.380;0.098;2022-11-15T08:50:08;11.70;99.90
63260;DHT22;49390;51.380;0.098;2022-11-15T08:52:55;11.70;99.90
63260;DHT22;49390;51.380;0.098;2022-11-15T08:55:41;11.70;99.90
63260;DHT22;49390;51.380;0.098;2022-11-15T08:58:28;11.70;99.90
63260;DHT22;49390;51.380;0.098;2022-11-15T09:01:17;11.80;99.90
63260;DHT22;49390;51.380;0.098;2022-11-15T09:04:04;11.80;99.90
63260;DHT22;49390;51.380;0.098;2022-11-15T09:06:51;11.80;99.90
63260;DHT22;49390;51.380;0.098;2022-11-15T09:09:39;11.80;99.90
63260;DHT22;49390;51.380;0.098;2022-11-15T09:12:26;11.90;99.90
63260;DHT22;49390;51.380;0.098;2022-11-15T09:15:13;11.90;99.90
63260;DHT22;49390;51.380;0.098;2022-11-15T09:18:01;12.00;99.90
63260;DHT22;49390;51.380;0.098;2022-11-15T09:20:49;12.00;99.90
63260;DHT22;49390;51.380;0.098;2022-11-15T09:23:36;12.00;99.90
63260;DHT22;49390;51.380;0.098;2022-11-15T09:26:22;12.00;99.90
63260;DHT22;49390;51.380;0.098;2022-11-15T09:29:11;12.00;99.90
63260;DHT22;49390;51.380;0.098;2022-11-15T09:31:57;12.00;99.90
63260;DHT22;49390;51.380;0.098;2022-11-15T09:34:44;12.10;99.90
63260;DHT22;49390;51.380;0.098;2022-11-15T09:37:32;12.10;99.90
63260;DHT22;49390;51.380;0.098;2022-11-15T09:40:19;12.10;99.90
63260;DHT22;49390;51.380;0.098;2022-11-15T09:49:29;12.10;99.90
63260;DHT22;49390;51.380;0.098;2022-11-15T09:52:14;12.10;99.90
63260;DHT22;49390;51.380;0.098;2022-11-15T09:54:49;12.20;99.90
63260;DHT22;49390;51.380;0.098;2022-11-15T10:00:33;12.20;99.90
63260;DHT22;49390;51.380;0.098;2022-11-15T10:03:24;12.20;99.90
63260;DHT22;49390;51.380;0.098;2022-11-15T10:05:57;12.20;99.90
63260;DHT22;49390;51.380;0.098;2022-11-15T10:11:37;12.30;99.90
63260;DHT22;49390;51.380;0.098;2022-11-15T10:14:20;12.30;99.90
63260;DHT22;49390;51.380;0.098;2022-11-15T10:17:09;12.30;99.90
63260;DHT22;49390;51.380;0.098;2022-11-15T10:22:16;12.40;99.90
63260;DHT22;49390;51.380;0.098;2022-11-15T10:24:50;12.40;99.90
63260;DHT22;49390;51.380;0.098;2022-11-15T10:27:20;12.40;99.90
63260;DHT22;49390;51.380;0.098;2022-11-15T10:29:49;12.40;99.90
63260;DHT22;49390;51.380;0.098;2022-11-15T10:32:19;12.40;99.90
63260;DHT22;49390;51.380;0.098;2022-11-15T10:34:49;12.50;99.90
63260;DHT22;49390;51.380;0.098;2022-11-15T10:37:31;12.50;99.90
63260;DHT22;49390;51.380;0.098;2022-11-15T10:40:14;12.50;99.90
63260;DHT22;49390;51.380;0.098;2022-11-15T10:42:43;12.50;99.90
63260;DHT22;49390;51.380;0.098;2022-11-15T10:45:31;12.50;99.90
63260;DHT22;49390;51.380;0.098;2022-11-15T10:50:45;12.50;99.90
63260;DHT22;49390;51.380;0.098;2022-11-15T10:53:31;12.50;99.90
63260;DHT22;49390;51.380;0.098;2022-11-15T10:56:04;12.50;99.90
63260;DHT22;49390;51.380;0.098;2022-11-15T10:58:37;12.60;99.90
63260;DHT22;49390;51.380;0.098;2022-11-15T11:04:04;12.60;99.90
63260;DHT22;49390;51.380;0.098;2022-11-15T11:09:38;12.60;99.90
63260;DHT22;49390;51.380;0.098;2022-11-15T11:12:10;12.60;99.90
63260;DHT22;49390;51.380;0.098;2022-11-15T11:14:39;12.60;99.90
63260;DHT22;49390;51.380;0.098;2022-11-15T11:17:36;12.60;99.90
63260;DHT22;49390;51.380;0.098;2022-11-15T11:20:13;12.60;99.90
63260;DHT22;49390;51.380;0.098;2022-11-15T11:22:55;12.50;99.90
63260;DHT22;49390;51.380;0.098;2022-11-15T11:25:40;12.60;99.90
63260;DHT22;49390;51.380;0.098;2022-11-15T11:34:36;12.60;99.90
63260;DHT22;49390;51.380;0.098;2022-11-15T11:37:14;12.60;99.90
63260;DHT22;49390;51.380;0.098;2022-11-15T11:39:59;12.60;99.90
63260;DHT22;49390;51.380;0.098;2022-11-15T11:43:01;12.60;99.90
63260;DHT22;49390;51.380;0.098;2022-11-15T11:48:13;12.60;99.90
63260;DHT22;49390;51.380;0.098;2022-11-15T11:50:44;12.60;99.90
63260;DHT22;49390;51.380;0.098;2022-11-15T11:53:23;12.60;99.90
63260;DHT22;49390;51.380;0.098;2022-11-15T11:55:58;12.60;99.90
63260;DHT22;49390;51.380;0.098;2022-11-15T11:58:36;12.60;99.90
63260;DHT22;49390;51.380;0.098;2022-11-15T12:04:01;12.60;99.90
63260;DHT22;49390;51.380;0.098;2022-11-15T12:06:48;12.60;99.90
63260;DHT22;49390;51.380;0.098;2022-11-15T12:09:38;12.70;99.90
63260;DHT22;49390;51.380;0.098;2022-11-15T12:12:14;12.70;99.90
63260;DHT22;49390;51.380;0.098;2022-11-15T12:14:50;12.70;99.90
63260;DHT22;49390;51.380;0.098;2022-11-15T12:17:28;12.70;99.90
63260;DHT22;49390;51.380;0.098;2022-11-15T12:20:03;12.70;99.90
63260;DHT22;49390;51.380;0.098;2022-11-15T12:22:39;12.70;99.90
63260;DHT22;49390;51.380;0.098;2022-11-15T12:31:36;12.80;99.90
63260;DHT22;49390;51.380;0.098;2022-11-15T12:36:52;12.80;99.90
63260;DHT22;49390;51.380;0.098;2022-11-15T12:39:20;12.80;99.90
63260;DHT22;49390;51.380;0.098;2022-11-15T12:42:34;12.80;99.90
63260;DHT22;49390;51.380;0.098;2022-11-15T12:47:25;12.90;99.90
63260;DHT22;49390;51.380;0.098;2022-11-15T12:49:54;12.90;99.90
63260;DHT22;49390;51.380;0.098;2022-11-15T12:52:22;12.90;99.90
63260;DHT22;49390;51.380;0.098;2022-11-15T12:54:59;12.90;99.90
63260;DHT22;49390;51.380;0.098;2022-11-15T12:57:30;12.90;99.90
63260;DHT22;49390;51.380;0.098;2022-11-15T13:00:04;13.00;99.90
63260;DHT22;49390;51.380;0.098;2022-11-15T13:02:37;13.00;99.90
63260;DHT22;49390;51.380;0.098;2022-11-15T13:07:57;13.00;99.90
63260;DHT22;49390;51.380;0.098;2022-11-15T13:12:59;13.00;99.90
63260;DHT22;49390;51.380;0.098;2022-11-15T13:18:35;13.00;99.90
63260;DHT22;49390;51.380;0.098;2022-11-15T13:21:18;13.00;99.90
63260;DHT22;49390;51.380;0.098;2022-11-15T13:24:09;13.10;99.90
63260;DHT22;49390;51.380;0.098;2022-11-15T13:26:39;13.20;99.90
63260;DHT22;49390;51.380;0.098;2022-11-15T13:29:18;13.20;99.90
63260;DHT22;49390;51.380;0.098;2022-11-15T13:31:48;13.30;99.90
63260;DHT22;49390;51.380;0.098;2022-11-15T13:34:24;13.40;99.90
63260;DHT22;49390;51.380;0.098;2022-11-15T13:39:49;13.70;99.90
63260;DHT22;49390;51.380;0.098;2022-11-15T13:42:18;13.90;99.90
63260;DHT22;49390;51.380;0.098;2022-11-15T13:44:58;14.00;99.90
63260;DHT22;49390;51.380;0.098;2022-11-15T13:47:29;14.00;99.90
63260;DHT22;49390;51.380;0.098;2022-11-15T13:49:58;14.10;99.90
63260;DHT22;49390;51.380;0.098;2022-11-15T13:52:30;14.10;99.90
63260;DHT22;49390;51.380;0.098;2022-11-15T13:55:04;14.20;99.90
63260;DHT22;49390;51.380;0.098;2022-11-15T13:57:55;14.30;99.90
63260;DHT22;49390;51.380;0.098;2022-11-15T14:02:55;14.40;99.90
63260;DHT22;49390;51.380;0.098;2022-11-15T14:05:25;14.40;99.90
63260;DHT22;49390;51.380;0.098;2022-11-15T14:08:11;14.40;99.90
63260;DHT22;49390;51.380;0.098;2022-11-15T14:10:41;14.30;99.90
63260;DHT22;49390;51.380;0.098;2022-11-15T14:13:28;14.40;99.90
63260;DHT22;49390;51.380;0.098;2022-11-15T14:16:19;14.30;99.90
63260;DHT22;49390;51.380;0.098;2022-11-15T14:18:51;14.30;99.90
63260;DHT22;49390;51.380;0.098;2022-11-15T14:21:20;14.20;99.90
63260;DHT22;49390;51.380;0.098;2022-11-15T14:23:48;14.20;99.90
63260;DHT22;49390;51.380;0.098;2022-11-15T14:26:32;14.20;99.90
63260;DHT22;49390;51.380;0.098;2022-11-15T14:32:13;14.20;99.90
63260;DHT22;49390;51.380;0.098;2022-11-15T14:34:43;14.10;99.90
63260;DHT22;49390;51.380;0.098;2022-11-15T14:37:30;14.10;99.90
63260;DHT22;49390;51.380;0.098;2022-11-15T14:40:04;14.10;99.90
63260;DHT22;49390;51.380;0.098;2022-11-15T14:42:33;14.10;99.90
63260;DHT22;49390;51.380;0.098;2022-11-15T14:45:02;14.10;99.90
63260;DHT22;49390;51.380;0.098;2022-11-15T14:47:30;14.10;99.90
63260;DHT22;49390;51.380;0.098;2022-11-15T14:49:58;14.10;99.90
63260;DHT22;49390;51.380;0.098;2022-11-15T14:52:31;14.10;99.90
63260;DHT22;49390;51.380;0.098;2022-11-15T14:55:26;14.00;99.90
63260;DHT22;49390;51.380;0.098;2022-11-15T14:57:56;14.00;99.90
63260;DHT22;49390;51.380;0.098;2022-11-15T15:00:25;13.80;99.90
63260;DHT22;49390;51.380;0.098;2022-11-15T15:03:01;13.80;99.90
63260;DHT22;49390;51.380;0.098;2022-11-15T15:10:27;13.60;99.90
63260;DHT22;49390;51.380;0.098;2022-11-15T15:24:00;13.30;99.90
63260;DHT22;49390;51.380;0.098;2022-11-15T15:26:30;13.30;99.90
63260;DHT22;49390;51.380;0.098;2022-11-15T15:29:04;13.20;99.90
63260;DHT22;49390;51.380;0.098;2022-11-15T15:31:32;13.20;99.90
63260;DHT22;49390;51.380;0.098;2022-11-15T15:34:01;13.10;99.90
63260;DHT22;49390;51.380;0.098;2022-11-15T15:36:32;13.10;99.90
63260;DHT22;49390;51.380;0.098;2022-11-15T15:39:01;13.00;99.90
63260;DHT22;49390;51.380;0.098;2022-11-15T15:41:30;13.00;99.90
63260;DHT22;49390;51.380;0.098;2022-11-15T15:43:58;13.00;99.90
63260;DHT22;49390;51.380;0.098;2022-11-15T15:46:26;12.90;99.90
63260;DHT22;49390;51.380;0.098;2022-11-15T15:48:55;12.90;99.90
63260;DHT22;49390;51.380;0.098;2022-11-15T15:51:22;12.80;99.90
63260;DHT22;49390;51.380;0.098;2022-11-15T15:53:51;12.80;99.90
63260;DHT22;49390;51.380;0.098;2022-11-15T15:56:20;12.80;99.90
63260;DHT22;49390;51.380;0.098;2022-11-15T15:58:48;12.80;99.90
63260;DHT22;49390;51.380;0.098;2022-11-15T16:01:16;12.70;99.90
63260;DHT22;49390;51.380;0.098;2022-11-15T16:03:44;12.70;99.90
63260;DHT22;49390;51.380;0.098;2022-11-15T16:09:05;12.60;99.90
63260;DHT22;49390;51.380;0.098;2022-11-15T16:11:44;12.60;99.90
63260;DHT22;49390;51.380;0.098;2022-11-15T16:14:16;12.50;99.90
63260;DHT22;49390;51.380;0.098;2022-11-15T16:16:43;12.50;99.90
63260;DHT22;49390;51.380;0.098;2022-11-15T16:19:12;12.50;99.90
63260;DHT22;49390;51.380;0.098;2022-11-15T16:21:41;12.50;99.90
63260;DHT22;49390;51.380;0.098;2022-11-15T16:24:10;12.50;99.90
63260;DHT22;49390;51.380;0.098;2022-11-15T16:26:38;12.50;99.90
63260;DHT22;49390;51.380;0.098;2022-11-15T16:29:07;12.50;99.90
63260;DHT22;49390;51.380;0.098;2022-11-15T16:31:37;12.60;99.90
63260;DHT22;49390;51.380;0.098;2022-11-15T16:34:05;12.60;99.90
63260;DHT22;49390;51.380;0.098;2022-11-15T16:36:34;12.50;99.90
63260;DHT22;49390;51.380;0.098;2022-11-15T16:39:04;12.50;99.90
63260;DHT22;49390;51.380;0.098;2022-11-15T16:41:32;12.50;99.90
63260;DHT22;49390;51.380;0.098;2022-11-15T16:44:00;12.50;99.90
63260;DHT22;49390;51.380;0.098;2022-11-15T16:46:28;12.40;99.90
63260;DHT22;49390;51.380;0.098;2022-11-15T16:48:57;12.40;99.90
63260;DHT22;49390;51.380;0.098;2022-11-15T16:51:25;12.40;99.90
63260;DHT22;49390;51.380;0.098;2022-11-15T16:53:53;12.40;99.90
63260;DHT22;49390;51.380;0.098;2022-11-15T16:56:27;12.30;99.90
63260;DHT22;49390;51.380;0.098;2022-11-15T16:58:57;12.30;99.90
63260;DHT22;49390;51.380;0.098;2022-11-15T17:01:30;12.30;99.90
63260;DHT22;49390;51.380;0.098;2022-11-15T17:04:01;12.30;99.90
63260;DHT22;49390;51.380;0.098;2022-11-15T17:06:44;12.30;99.90
63260;DHT22;49390;51.380;0.098;2022-11-15T17:09:20;12.20;99.90
63260;DHT22;49390;51.380;0.098;2022-11-15T17:11:51;12.20;99.90
63260;DHT22;49390;51.380;0.098;2022-11-15T17:14:20;12.20;99.90
63260;DHT22;49390;51.380;0.098;2022-11-15T17:16:48;12.10;99.90
63260;DHT22;49390;51.380;0.098;2022-11-15T17:19:19;12.10;99.90
63260;DHT22;49390;51.380;0.098;2022-11-15T17:21:50;12.10;99.90
63260;DHT22;49390;51.380;0.098;2022-11-15T17:24:19;12.10;99.90
63260;DHT22;49390;51.380;0.098;2022-11-15T17:26:47;12.10;99.90
63260;DHT22;49390;51.380;0.098;2022-11-15T17:29:16;12.10;99.90
63260;DHT22;49390;51.380;0.098;2022-11-15T17:31:47;12.10;99.90
63260;DHT22;49390;51.380;0.098;2022-11-15T17:34:15;12.10;99.90
63260;DHT22;49390;51.380;0.098;2022-11-15T17:36:44;12.10;99.90
63260;DHT22;49390;51.380;0.098;2022-11-15T17:39:13;12.10;99.90
63260;DHT22;49390;51.380;0.098;2022-11-15T17:41:41;12.10;99.90
63260;DHT22;49390;51.380;0.098;2022-11-15T17:44:09;12.10;99.90
63260;DHT22;49390;51.380;0.098;2022-11-15T17:46:38;12.10;99.90
63260;DHT22;49390;51.380;0.098;2022-11-15T17:49:07;12.10;99.90
63260;DHT22;49390;51.380;0.098;2022-11-15T17:51:35;12.00;99.90
63260;DHT22;49390;51.380;0.098;2022-11-15T17:54:03;12.00;99.90
63260;DHT22;49390;51.380;0.098;2022-11-15T17:56:32;12.00;99.90
63260;DHT22;49390;51.380;0.098;2022-11-15T17:59:00;12.00;99.90
63260;DHT22;49390;51.380;0.098;2022-11-15T18:01:30;12.00;99.90
63260;DHT22;49390;51.380;0.098;2022-11-15T18:04:00;12.00;99.90
63260;DHT22;49390;51.380;0.098;2022-11-15T18:06:31;12.00;99.90
63260;DHT22;49390;51.380;0.098;2022-11-15T18:08:59;12.00;99.90
63260;DHT22;49390;51.380;0.098;2022-11-15T18:11:35;11.90;99.90
63260;DHT22;49390;51.380;0.098;2022-11-15T18:14:07;11.90;99.90
63260;DHT22;49390;51.380;0.098;2022-11-15T18:16:36;11.90;99.90
63260;DHT22;49390;51.380;0.098;2022-11-15T18:19:05;11.80;99.90
63260;DHT22;49390;51.380;0.098;2022-11-15T18:21:42;11.80;99.90
63260;DHT22;49390;51.380;0.098;2022-11-15T18:24:34;11.80;99.90
63260;DHT22;49390;51.380;0.098;2022-11-15T18:27:04;11.70;99.90
63260;DHT22;49390;51.380;0.098;2022-11-15T18:29:33;11.70;99.90
63260;DHT22;49390;51.380;0.098;2022-11-15T18:32:05;11.70;99.90
63260;DHT22;49390;51.380;0.098;2022-11-15T18:34:39;11.60;99.90
63260;DHT22;49390;51.380;0.098;2022-11-15T18:37:07;11.60;99.90
63260;DHT22;49390;51.380;0.098;2022-11-15T18:39:35;11.60;99.90
63260;DHT22;49390;51.380;0.098;2022-11-15T18:42:04;11.50;99.90
63260;DHT22;49390;51.380;0.098;2022-11-15T18:44:34;11.50;99.90
63260;DHT22;49390;51.380;0.098;2022-11-15T18:47:01;11.50;99.90
63260;DHT22;49390;51.380;0.098;2022-11-15T18:49:30;11.40;99.90
63260;DHT22;49390;51.380;0.098;2022-11-15T18:51:58;11.40;99.90
63260;DHT22;49390;51.380;0.098;2022-11-15T18:54:26;11.30;99.90